< Typhoon 199226 1992 Season Typhoon 199228 >
Typhoon 199227 (DAN)
General InformationTrack Information on Google MapsDetailed Wind InformationList of All Images || Disaster Info.ResourceGoogle EarthGE AnimationAtom FeedGeoJSON
Detalied Best Track (Time Zone = UTC)
Year Month Day Hour Lat. Long. Pressure (hPa) Wind (kt) Class Image Chart
1992 10 25 00 10.8 181.0 1000 0 7 Image Chart
1992 10 25 06 11.3 179.8 1000 0 2 Image Chart
1992 10 25 12 12.0 179.2 998 35 3 Image Chart
1992 10 25 18 12.8 178.7 996 40 3 Image Chart
1992 10 26 00 13.4 177.9 990 45 3 Image Chart
1992 10 26 06 14.1 176.3 985 50 4 Image Chart
1992 10 26 12 14.5 174.5 980 55 4 Image Chart
1992 10 26 18 14.9 173.0 975 60 4 Image Chart
1992 10 27 00 15.7 171.5 970 65 5 Image Chart
1992 10 27 06 16.5 170.0 965 70 5 Image Chart
1992 10 27 12 17.1 168.9 955 80 5 Image Chart
1992 10 27 18 17.7 168.0 945 85 5 Image Chart
1992 10 28 00 18.6 167.1 940 85 5 Image Chart
1992 10 28 06 19.6 166.3 940 85 5 Image Chart
1992 10 28 12 20.3 165.6 940 85 5 Image Chart
1992 10 28 18 21.2 165.0 940 85 5 Image Chart
1992 10 29 00 21.8 164.8 945 85 5 Image Chart
1992 10 29 06 22.2 164.8 950 80 5 Image Chart
1992 10 29 12 22.5 164.6 950 80 5 Image Chart
1992 10 29 18 22.3 164.3 955 75 5 Image Chart
1992 10 30 00 21.8 163.9 955 75 5 Image Chart
1992 10 30 06 21.5 163.3 955 75 5 Image Chart
1992 10 30 12 21.0 162.1 955 75 5 Image Chart
1992 10 30 18 20.3 160.5 955 75 5 Image Chart
1992 10 31 00 19.7 159.1 955 75 5 Image Chart
1992 10 31 06 19.4 157.8 955 75 5 Image Chart
1992 10 31 12 19.2 156.3 955 75 5 Image Chart
1992 10 31 18 19.3 154.8 955 75 5 Image Chart
1992 11 1 00 19.6 152.9 950 80 5 Image Chart
1992 11 1 06 20.0 151.5 940 85 5 Image Chart
1992 11 1 12 20.8 150.2 935 90 5 Image Chart
1992 11 1 18 21.7 149.1 935 90 5 Image Chart
1992 11 2 00 22.4 148.6 940 85 5 Image Chart
1992 11 2 06 23.2 148.9 945 80 5 Image Chart
1992 11 2 12 24.0 149.5 950 80 5 Image Chart
1992 11 2 18 25.2 150.8 955 75 5 Image Chart
1992 11 3 00 26.3 152.4 960 75 5 Image Chart
1992 11 3 06 27.6 154.6 965 70 5 Image Chart
1992 11 3 12 29.0 156.7 970 65 5 Image Chart
1992 11 3 18 30.5 159.2 980 55 4 Image Chart
1992 11 4 00 31.9 161.2 990 0 6 Image Chart
1992 11 4 06 32.9 162.7 1000 0 6 Image Chart
1992 11 4 12 33.5 164.3 1008 0 6 Image Chart
1992 11 4 18 33.5 166.5 1012 0 6 Image Chart
1992 11 5 00 33.0 168.5 1012 0 6 Image Chart
Japan Meteorological Agency Best Track Data | Correction Date : 2013-11-22
< Typhoon 199226 1992 Season Typhoon 199228 >

Help